Time;durP1;ratioP1;P1;durP2;ratioP2;P2;SDS_P1;SDS_P2;PMS_P1;PMS_P2;Temp;Humidity;BMP_temperature;BMP_pressure;BME280_temperature;BME280_humidity;BME280_pressure;Samples;Min_cycle;Max_cycle;Signal;HPM_P1;HPM_P2
2023/07/13 00:11:34;;;;;;;13.07;2.97;;;28.50;80.80;;;;;;5024893;28;20133;-82
2023/07/13 00:21:49;;;;;;;10.65;2.63;;;28.60;80.70;;;;;;5012916;28;20089;-82
2023/07/13 00:45:09;;;;;;;10.82;1.98;;;27.30;82.80;;;;;;5003311;28;20045;-82
2023/07/13 01:16:22;;;;;;;;;;;;;;;;;;;;;
2023/07/13 01:18:40;;;;;;;3.45;1.02;;;26.70;83.30;;;;;;4937677;29;20396;-82
2023/07/13 01:22:09;;;;;;;;;;;;;;;;;;;;;
2023/07/13 01:25:42;;;;;;;2.50;0.88;;;26.70;84.50;;;;;;5037294;28;20052;-82
2023/07/13 01:39:16;;;;;;;1.55;0.43;;;26.70;83.70;;;;;;4888584;29;20028;-84
2023/07/13 01:41:48;;;;;;;0.93;0.60;;;26.70;83.50;;;;;;4884983;29;20037;-83
2023/07/13 01:44:31;;;;;;;1.95;0.85;;;26.70;82.90;;;;;;4903883;29;20060;-83
2023/07/13 01:47:10;;;;;;;1.23;0.40;;;26.70;82.80;;;;;;4941178;29;20046;-83
2023/07/13 02:07:40;;;;;;;0.75;0.30;;;26.70;82.60;;;;;;4831980;29;20057;-83
2023/07/13 02:10:40;;;;;;;1.20;0.47;;;26.60;82.50;;;;;;4857174;29;20566;-82
2023/07/13 02:13:43;;;;;;;0.85;0.50;;;26.60;82.40;;;;;;4841570;29;20054;-82
2023/07/13 02:19:52;;;;;;;2.85;0.50;;;26.60;82.70;;;;;;4926019;29;20129;-82
2023/07/13 02:32:31;;;;;;;0.40;0.40;;;26.40;83.30;;;;;;5024119;28;20125;-84
2023/07/13 02:34:56;;;;;;;1.42;0.50;;;26.40;83.40;;;;;;5035793;28;20061;-84
2023/07/13 02:37:22;;;;;;;0.93;0.40;;;26.30;83.40;;;;;;5017786;28;20112;-82
2023/07/13 02:39:48;;;;;;;2.47;0.57;;;26.30;83.50;;;;;;5026314;28;20080;-83
2023/07/13 02:42:14;;;;;;;1.80;0.60;;;26.30;83.60;;;;;;5015769;28;20024;-84
2023/07/13 02:44:39;;;;;;;0.88;0.40;;;26.30;83.80;;;;;;5033281;28;20099;-83
2023/07/13 02:47:05;;;;;;;0.90;0.60;;;26.30;83.90;;;;;;5034480;28;20037;-84
2023/07/13 02:49:31;;;;;;;0.98;0.40;;;26.20;84.10;;;;;;5029306;28;20059;-82
2023/07/13 02:51:57;;;;;;;3.75;0.75;;;26.20;84.00;;;;;;5034328;28;20124;-82
2023/07/13 02:54:22;;;;;;;2.20;0.63;;;26.20;84.30;;;;;;5030586;28;20029;-82
2023/07/13 02:56:48;;;;;;;2.05;0.40;;;26.10;84.40;;;;;;5015562;28;20050;-82
2023/07/13 02:59:14;;;;;;;2.50;0.65;;;26.10;84.30;;;;;;5034960;28;20037;-83
2023/07/13 03:01:40;;;;;;;2.15;0.50;;;26.10;84.50;;;;;;5033917;28;20017;-83
2023/07/13 03:04:06;;;;;;;1.65;0.70;;;26.10;84.20;;;;;;5034487;28;20044;-82
2023/07/13 03:06:35;;;;;;;1.33;0.65;;;26.10;84.10;;;;;;5033323;28;20022;-83
2023/07/13 03:09:01;;;;;;;1.63;0.90;;;26.10;84.10;;;;;;5020096;28;20077;-83
2023/07/13 03:11:27;;;;;;;1.85;0.63;;;26.10;84.30;;;;;;5014979;28;20116;-83
2023/07/13 03:13:53;;;;;;;1.88;0.60;;;26.10;84.30;;;;;;5029764;28;20481;-83
2023/07/13 03:16:19;;;;;;;1.35;0.50;;;26.10;84.50;;;;;;5033896;28;20029;-82
2023/07/13 03:18:46;;;;;;;1.27;0.50;;;26.10;84.40;;;;;;5023554;28;20014;-82
2023/07/13 03:21:12;;;;;;;4.43;0.70;;;26.10;84.60;;;;;;5032912;28;20042;-81
2023/07/13 03:23:37;;;;;;;2.42;0.73;;;26.20;84.80;;;;;;5033827;28;20111;-81
2023/07/13 03:26:13;;;;;;;1.48;0.57;;;26.10;84.60;;;;;;5033705;28;20535;-82
2023/07/13 03:28:40;;;;;;;1.95;0.60;;;26.10;85.00;;;;;;5026186;28;20037;-81
2023/07/13 03:31:09;;;;;;;3.67;0.85;;;26.00;84.80;;;;;;5033788;28;20033;-81
2023/07/13 03:33:36;;;;;;;2.42;0.95;;;26.00;85.40;;;;;;5023027;28;20045;-82
2023/07/13 03:36:03;;;;;;;2.38;0.70;;;26.00;85.70;;;;;;5014564;28;20458;-82
2023/07/13 03:38:32;;;;;;;1.92;1.00;;;25.90;85.70;;;;;;5033464;28;20057;-83
2023/07/13 03:40:57;;;;;;;2.70;1.00;;;25.80;86.20;;;;;;5033954;28;20100;-83
2023/07/13 03:43:23;;;;;;;3.17;1.25;;;25.70;86.90;;;;;;5035953;28;20135;-82
2023/07/13 03:45:49;;;;;;;2.63;1.08;;;25.70;87.60;;;;;;5013878;28;20369;-81
2023/07/13 03:48:14;;;;;;;2.92;0.68;;;25.60;88.00;;;;;;5015431;28;20026;-82
2023/07/13 03:50:40;;;;;;;3.45;1.33;;;25.60;88.00;;;;;;5033114;28;20033;-82
2023/07/13 03:53:06;;;;;;;3.15;1.00;;;25.40;88.40;;;;;;5022102;28;20091;-82
2023/07/13 03:55:32;;;;;;;2.50;1.05;;;25.40;88.50;;;;;;5033657;28;20369;-82
2023/07/13 03:58:01;;;;;;;3.28;0.80;;;25.30;89.20;;;;;;5032991;28;20025;-83
2023/07/13 04:00:26;;;;;;;3.15;0.85;;;25.30;89.10;;;;;;5032993;28;20454;-82
2023/07/13 04:02:52;;;;;;;3.97;1.00;;;25.20;89.60;;;;;;5031501;28;20025;-82
2023/07/13 04:05:19;;;;;;;6.80;1.10;;;25.20;89.40;;;;;;5032121;28;20031;-82
2023/07/13 04:07:44;;;;;;;2.90;0.95;;;25.20;89.40;;;;;;5032913;28;20033;-80
2023/07/13 04:10:10;;;;;;;2.42;0.80;;;25.20;89.20;;;;;;5032637;28;20108;-82
2023/07/13 04:12:36;;;;;;;4.03;1.88;;;25.20;89.30;;;;;;5031456;28;20029;-82
2023/07/13 04:15:01;;;;;;;4.63;1.60;;;25.20;89.60;;;;;;5033111;28;20508;-82
2023/07/13 04:17:27;;;;;;;3.95;1.80;;;25.20;89.60;;;;;;5032824;28;20181;-83
2023/07/13 04:19:53;;;;;;;2.78;1.27;;;25.10;90.00;;;;;;5021110;28;20463;-82
2023/07/13 04:22:18;;;;;;;1.90;1.23;;;25.00;90.00;;;;;;5028059;28;20092;-81
2023/07/13 04:24:44;;;;;;;3.40;1.50;;;24.90;90.20;;;;;;5022339;28;20034;-80
2023/07/13 04:27:10;;;;;;;4.47;1.90;;;24.80;90.40;;;;;;5009093;28;20401;-81
2023/07/13 04:29:35;;;;;;;7.70;2.15;;;24.80;90.60;;;;;;5016004;28;20077;-81
2023/07/13 04:32:01;;;;;;;4.25;1.30;;;24.80;90.60;;;;;;5015481;28;20045;-82
2023/07/13 04:34:27;;;;;;;5.65;1.60;;;24.80;90.40;;;;;;5029391;28;20033;-81
2023/07/13 04:36:52;;;;;;;3.58;1.83;;;24.80;90.40;;;;;;5029297;28;20057;-81
2023/07/13 04:39:18;;;;;;;5.97;1.40;;;24.90;90.30;;;;;;5027801;28;20041;-81
2023/07/13 04:41:44;;;;;;;2.38;1.08;;;25.00;90.30;;;;;;5012476;28;20025;-81
2023/07/13 04:44:09;;;;;;;2.58;1.48;;;25.00;90.20;;;;;;5017635;28;20470;-81
2023/07/13 04:46:35;;;;;;;2.25;1.33;;;25.00;90.10;;;;;;5017581;28;20034;-80
2023/07/13 04:49:03;;;;;;;5.22;1.70;;;25.00;90.00;;;;;;5013017;28;20085;-81
2023/07/13 04:51:29;;;;;;;2.70;1.55;;;25.00;90.00;;;;;;5020774;28;20021;-81
2023/07/13 04:53:55;;;;;;;4.40;1.40;;;24.90;90.00;;;;;;5012756;28;20374;-81
2023/07/13 04:56:20;;;;;;;5.18;1.50;;;24.90;90.00;;;;;;5014128;28;20034;-80
2023/07/13 04:58:46;;;;;;;3.25;1.17;;;24.90;90.10;;;;;;5024326;28;20014;-81
2023/07/13 05:01:13;;;;;;;3.95;1.50;;;24.80;90.00;;;;;;5027957;28;20482;-81
2023/07/13 05:03:39;;;;;;;3.15;1.48;;;24.90;90.00;;;;;;5019329;28;20026;-81
2023/07/13 05:06:07;;;;;;;4.72;1.80;;;25.00;89.90;;;;;;5014159;28;20026;-82
2023/07/13 05:08:33;;;;;;;6.15;1.80;;;25.10;89.40;;;;;;5029377;28;20115;-81
2023/07/13 05:11:03;;;;;;;4.30;1.48;;;25.20;88.80;;;;;;5014090;28;20030;-81
2023/07/13 05:13:29;;;;;;;3.08;1.42;;;25.30;88.60;;;;;;5012712;28;20065;-81
2023/07/13 05:16:00;;;;;;;5.55;1.92;;;25.30;87.80;;;;;;5024548;28;20104;-81
2023/07/13 05:18:27;;;;;;;2.72;1.27;;;25.30;87.20;;;;;;5020039;28;20018;-80
2023/07/13 05:21:07;;;;;;;4.40;1.58;;;25.30;87.40;;;;;;5014000;28;20034;-80
2023/07/13 05:23:34;;;;;;;5.43;1.48;;;25.20;87.30;;;;;;5027193;28;20124;-79
2023/07/13 05:26:00;;;;;;;2.65;1.23;;;25.20;87.80;;;;;;5027441;28;20037;-79
2023/07/13 05:28:27;;;;;;;5.40;1.30;;;25.10;87.90;;;;;;4997577;28;20430;-79
2023/07/13 05:30:54;;;;;;;7.13;1.73;;;25.10;88.00;;;;;;5013071;28;20371;-79
2023/07/13 05:33:20;;;;;;;3.83;1.52;;;25.10;88.00;;;;;;5021203;28;20116;-81
2023/07/13 05:35:46;;;;;;;4.05;1.27;;;25.10;88.10;;;;;;5024020;28;20105;-79
2023/07/13 05:38:12;;;;;;;3.28;1.65;;;25.10;87.80;;;;;;5018430;28;20109;-80
2023/07/13 05:40:38;;;;;;;1.95;1.02;;;25.20;88.10;;;;;;5015663;28;21625;-80
2023/07/13 05:43:03;;;;;;;4.00;1.25;;;25.20;88.10;;;;;;5025768;28;20049;-80
2023/07/13 05:45:29;;;;;;;4.82;1.52;;;25.30;87.80;;;;;;5012178;28;20042;-79
2023/07/13 05:47:55;;;;;;;4.05;1.50;;;25.30;87.70;;;;;;5012449;28;20036;-80
2023/07/13 05:50:21;;;;;;;6.47;1.88;;;25.30;87.70;;;;;;5011387;28;20037;-81
2023/07/13 05:52:46;;;;;;;5.65;1.60;;;25.30;87.70;;;;;;5013644;28;20477;-80
2023/07/13 05:55:13;;;;;;;6.63;1.20;;;25.20;87.70;;;;;;5012759;28;20045;-80
2023/07/13 05:57:38;;;;;;;8.43;1.90;;;25.20;87.90;;;;;;5015773;28;20382;-79
2023/07/13 06:00:05;;;;;;;4.90;1.95;;;25.20;88.20;;;;;;5012726;28;20025;-83
2023/07/13 06:02:30;;;;;;;4.80;1.27;;;25.10;88.00;;;;;;5013743;28;20030;-82
2023/07/13 06:04:56;;;;;;;4.32;1.45;;;25.10;88.00;;;;;;4999032;28;20030;-82
2023/07/13 06:07:22;;;;;;;7.15;2.35;;;25.10;87.90;;;;;;5020484;28;20034;-80
2023/07/13 06:09:47;;;;;;;1.73;0.93;;;25.20;88.00;;;;;;5010124;28;20421;-81
2023/07/13 06:12:13;;;;;;;5.00;1.35;;;25.20;87.70;;;;;;4994377;28;20968;-81
2023/07/13 06:14:39;;;;;;;5.53;1.25;;;25.20;87.60;;;;;;5015710;28;20027;-81
2023/07/13 06:17:05;;;;;;;5.25;1.88;;;25.30;87.70;;;;;;5016163;28;20586;-81
2023/07/13 06:19:31;;;;;;;7.57;2.13;;;25.30;87.70;;;;;;5015821;28;20026;-81
2023/07/13 06:21:58;;;;;;;3.53;1.42;;;25.30;87.40;;;;;;5014705;28;20030;-81
2023/07/13 06:24:24;;;;;;;5.25;1.73;;;25.30;87.20;;;;;;5009173;28;20064;-81
2023/07/13 06:26:50;;;;;;;3.38;1.52;;;25.40;87.30;;;;;;5035759;28;20056;-81
2023/07/13 06:29:15;;;;;;;9.45;1.98;;;25.40;87.10;;;;;;5035953;28;20157;-81
2023/07/13 06:31:41;;;;;;;5.43;2.53;;;25.50;87.00;;;;;;5035630;28;20029;-80
2023/07/13 06:34:07;;;;;;;7.80;1.77;;;25.50;86.40;;;;;;5035816;28;20489;-80
2023/07/13 06:36:32;;;;;;;5.32;1.90;;;25.60;86.40;;;;;;5034901;28;20088;-80
2023/07/13 06:38:58;;;;;;;5.75;1.58;;;25.70;86.00;;;;;;5035087;28;20033;-80
2023/07/13 06:41:26;;;;;;;5.88;1.70;;;25.70;86.10;;;;;;5033207;28;20029;-80
2023/07/13 06:43:52;;;;;;;5.32;1.20;;;25.80;85.70;;;;;;5027103;28;20025;-81
2023/07/13 06:46:19;;;;;;;3.22;1.23;;;25.80;85.60;;;;;;5017035;28;20037;-80
2023/07/13 06:48:45;;;;;;;5.70;1.80;;;26.00;85.70;;;;;;5034902;28;20069;-80
2023/07/13 06:51:11;;;;;;;2.72;1.38;;;26.10;85.00;;;;;;5034587;28;20445;-80
2023/07/13 06:53:36;;;;;;;4.30;1.33;;;26.20;84.90;;;;;;5033571;28;20043;-80
2023/07/13 06:56:02;;;;;;;2.65;1.10;;;26.30;85.00;;;;;;5016820;28;20030;-80
2023/07/13 06:58:28;;;;;;;5.47;1.67;;;26.40;84.60;;;;;;5033637;28;20041;-81
2023/07/13 07:00:54;;;;;;;3.50;1.27;;;26.50;84.30;;;;;;5034034;28;20057;-81
2023/07/13 07:03:19;;;;;;;6.20;2.20;;;26.60;84.10;;;;;;5032048;28;20084;-81
2023/07/13 07:05:45;;;;;;;6.60;2.03;;;26.70;83.30;;;;;;5016553;28;20037;-81
2023/07/13 07:08:11;;;;;;;8.30;1.80;;;26.60;83.30;;;;;;5026152;28;20045;-81
2023/07/13 07:10:37;;;;;;;6.13;1.58;;;26.60;83.60;;;;;;5027488;28;20029;-81
2023/07/13 07:13:03;;;;;;;3.33;1.20;;;26.50;83.60;;;;;;5034730;28;20454;-81
2023/07/13 07:15:29;;;;;;;5.97;1.65;;;26.50;83.90;;;;;;5034729;28;20353;-81
2023/07/13 07:17:55;;;;;;;5.03;1.45;;;26.60;83.90;;;;;;5034551;28;20030;-81
2023/07/13 07:20:21;;;;;;;4.38;1.52;;;26.50;83.90;;;;;;5034887;28;20148;-81
2023/07/13 07:22:48;;;;;;;5.10;1.48;;;26.60;83.80;;;;;;5034878;28;20425;-81
2023/07/13 07:25:14;;;;;;;2.47;1.27;;;26.60;83.80;;;;;;5034606;28;20421;-81
2023/07/13 07:27:39;;;;;;;4.10;1.58;;;26.60;83.50;;;;;;5034427;28;20032;-81
2023/07/13 07:30:06;;;;;;;5.50;1.80;;;26.60;83.50;;;;;;5034368;28;20025;-81
2023/07/13 07:32:32;;;;;;;4.22;1.20;;;26.60;83.40;;;;;;5015948;28;20031;-81
2023/07/13 07:34:58;;;;;;;6.32;1.65;;;26.70;83.30;;;;;;5033391;28;20121;-81
2023/07/13 07:37:24;;;;;;;5.70;1.20;;;26.70;83.30;;;;;;5033389;28;20501;-81
2023/07/13 07:39:50;;;;;;;4.60;1.27;;;26.70;82.90;;;;;;5033088;28;20024;-81
2023/07/13 07:42:16;;;;;;;5.90;1.30;;;26.70;83.10;;;;;;5033965;28;20080;-81
2023/07/13 07:44:42;;;;;;;6.10;1.65;;;26.80;83.00;;;;;;5033633;28;20033;-81
2023/07/13 07:47:09;;;;;;;2.70;1.05;;;26.80;83.10;;;;;;5033700;28;20052;-81
2023/07/13 07:49:36;;;;;;;5.72;1.40;;;26.90;82.70;;;;;;5032181;28;20044;-81
2023/07/13 07:52:02;;;;;;;4.13;1.20;;;26.90;82.60;;;;;;5033384;28;20076;-81
2023/07/13 07:54:28;;;;;;;5.30;1.67;;;27.00;82.50;;;;;;5014767;28;20034;-81
2023/07/13 07:56:53;;;;;;;2.90;1.13;;;27.00;81.80;;;;;;5030504;28;20033;-81
2023/07/13 07:59:19;;;;;;;5.22;1.27;;;27.00;82.00;;;;;;5032973;28;20025;-81
2023/07/13 08:01:47;;;;;;;5.20;1.52;;;26.90;81.90;;;;;;5030187;28;20025;-81
2023/07/13 08:04:13;;;;;;;7.10;1.58;;;27.00;81.90;;;;;;5032369;28;20082;-81
2023/07/13 08:06:39;;;;;;;3.85;1.08;;;26.90;81.40;;;;;;5031942;28;20138;-81
2023/07/13 08:09:05;;;;;;;4.85;1.42;;;26.90;81.90;;;;;;5015739;28;20486;-81
2023/07/13 08:11:31;;;;;;;5.70;1.30;;;26.90;82.00;;;;;;5031708;28;20036;-81
2023/07/13 08:13:57;;;;;;;3.33;1.20;;;27.00;82.10;;;;;;5033455;28;20026;-81
2023/07/13 08:16:23;;;;;;;5.63;1.38;;;27.10;82.00;;;;;;5033721;28;20108;-81
2023/07/13 08:18:49;;;;;;;6.13;1.20;;;27.20;82.50;;;;;;5029604;28;20078;-81
2023/07/13 08:21:14;;;;;;;3.17;1.20;;;27.20;83.30;;;;;;5032963;28;20057;-80
2023/07/13 08:23:40;;;;;;;2.33;1.10;;;27.20;82.80;;;;;;5031830;28;20049;-81
2023/07/13 08:26:06;;;;;;;3.78;1.23;;;27.30;82.60;;;;;;5033707;28;20128;-82
2023/07/13 08:28:33;;;;;;;3.00;1.48;;;27.30;82.50;;;;;;5032321;28;20033;-82
2023/07/13 08:31:07;;;;;;;3.28;1.25;;;27.30;81.90;;;;;;5032728;28;20116;-81
2023/07/13 08:33:35;;;;;;;3.22;0.98;;;27.20;82.00;;;;;;5028839;28;20033;-81
2023/07/13 08:36:00;;;;;;;3.75;1.48;;;27.30;82.20;;;;;;5032086;28;20385;-81
2023/07/13 08:38:26;;;;;;;2.20;1.00;;;27.30;82.20;;;;;;5030953;28;20041;-80
2023/07/13 08:40:55;;;;;;;7.13;1.85;;;27.30;81.70;;;;;;5032121;28;20410;-80
2023/07/13 08:43:26;;;;;;;4.90;1.33;;;27.20;81.50;;;;;;5032274;28;20084;-80
2023/07/13 08:46:18;;;;;;;13.88;1.20;;;27.20;81.60;;;;;;5031059;28;20041;-79
2023/07/13 08:48:47;;;;;;;2.97;1.30;;;27.20;81.50;;;;;;5022480;28;20041;-80
2023/07/13 08:51:40;;;;;;;4.95;1.90;;;27.20;81.30;;;;;;5032646;28;20458;-80
2023/07/13 08:54:49;;;;;;;4.88;1.20;;;27.20;79.90;;;;;;5030811;28;20091;-80
2023/07/13 08:57:19;;;;;;;6.00;1.15;;;27.10;80.30;;;;;;5028062;28;20045;-80
2023/07/13 08:59:44;;;;;;;;;;;27.10;80.50;;;;;;5033493;28;20022;-79
2023/07/13 09:02:28;;;;;;;2.75;1.20;;;27.00;80.60;;;;;;5031517;28;20395;-80
2023/07/13 09:05:06;;;;;;;4.60;1.42;;;27.00;80.80;;;;;;5032700;28;20045;-79
2023/07/13 09:08:08;;;;;;;3.67;1.00;;;27.10;81.10;;;;;;5032427;28;20060;-80
2023/07/13 09:10:42;;;;;;;4.25;1.25;;;27.10;80.40;;;;;;5031399;28;20052;-80
2023/07/13 09:13:39;;;;;;;2.97;1.08;;;27.10;80.00;;;;;;5032973;28;20038;-80
2023/07/13 09:16:05;;;;;;;6.25;1.30;;;27.20;80.00;;;;;;5032850;28;20037;-81
2023/07/13 09:18:40;;;;;;;2.47;1.00;;;27.20;80.00;;;;;;5032433;28;20025;-81
2023/07/13 09:21:16;;;;;;;2.22;0.75;;;27.20;79.70;;;;;;5032397;28;20048;-81
2023/07/13 09:23:43;;;;;;;7.55;3.65;;;27.20;79.50;;;;;;5032446;28;20037;-81
2023/07/13 09:26:22;;;;;;;8.93;2.50;;;27.20;79.10;;;;;;5014344;28;20052;-81
2023/07/13 09:29:12;;;;;;;4.70;1.77;;;27.10;79.10;;;;;;5013308;28;20041;-81
2023/07/13 09:31:52;;;;;;;4.47;1.10;;;27.20;79.60;;;;;;5012486;28;20536;-80
2023/07/13 09:34:18;;;;;;;2.92;1.17;;;27.10;79.40;;;;;;5027829;28;20448;-81
2023/07/13 09:36:44;;;;;;;4.25;1.00;;;27.20;79.70;;;;;;5038516;28;20029;-81
2023/07/13 09:39:27;;;;;;;2.67;0.90;;;27.20;79.50;;;;;;5023892;28;20026;-80
2023/07/13 09:42:01;;;;;;;5.57;1.50;;;27.10;79.00;;;;;;5030001;28;20560;-80
2023/07/13 09:44:33;;;;;;;2.55;1.17;;;27.10;79.00;;;;;;5024530;28;20133;-80
2023/07/13 09:46:59;;;;;;;4.63;1.15;;;27.10;79.10;;;;;;5029614;28;20120;-80
2023/07/13 09:49:32;;;;;;;5.25;1.42;;;27.00;79.90;;;;;;5014212;28;20108;-80
2023/07/13 09:52:06;;;;;;;3.42;1.00;;;27.10;80.70;;;;;;5029691;28;20065;-80
2023/07/13 09:54:36;;;;;;;3.40;1.30;;;27.20;80.10;;;;;;5020003;28;20025;-80
2023/07/13 09:57:04;;;;;;;2.28;0.90;;;27.20;79.80;;;;;;5019668;28;20116;-80
2023/07/13 09:59:33;;;;;;;3.35;1.20;;;27.20;80.00;;;;;;5033466;28;20026;-79
2023/07/13 10:01:59;;;;;;;4.28;1.63;;;27.20;80.00;;;;;;5014641;28;20029;-80
2023/07/13 10:04:33;;;;;;;3.85;1.15;;;27.20;79.40;;;;;;5034555;28;20039;-80
2023/07/13 10:07:12;;;;;;;4.43;1.63;;;27.20;79.20;;;;;;5030975;28;20025;-81
2023/07/13 10:09:38;;;;;;;2.95;1.20;;;27.20;79.30;;;;;;5028006;28;20033;-81
2023/07/13 10:12:14;;;;;;;4.45;1.33;;;27.20;79.10;;;;;;5033416;28;20025;-81
2023/07/13 10:14:42;;;;;;;11.18;1.88;;;27.20;78.90;;;;;;5022763;28;20076;-81
2023/07/13 10:17:13;;;;;;;2.75;1.27;;;27.20;78.30;;;;;;5025032;28;20087;-81
2023/07/13 10:19:45;;;;;;;6.88;1.73;;;27.20;78.90;;;;;;5029936;28;20022;-81
2023/07/13 10:22:25;;;;;;;5.93;1.67;;;27.10;79.20;;;;;;5028539;28;20029;-81
2023/07/13 10:24:52;;;;;;;5.47;1.30;;;27.10;79.50;;;;;;5025624;28;20046;-81
2023/07/13 10:27:25;;;;;;;2.60;1.30;;;27.00;80.20;;;;;;5029604;28;20036;-81
2023/07/13 10:30:12;;;;;;;9.20;2.15;;;27.00;80.70;;;;;;5021434;28;20541;-81
2023/07/13 10:32:38;;;;;;;7.93;1.70;;;26.90;81.90;;;;;;5011110;28;20038;-81
2023/07/13 10:35:04;;;;;;;5.00;1.98;;;26.80;82.00;;;;;;5023016;28;20018;-81
2023/07/13 10:37:38;;;;;;;7.03;2.03;;;26.80;81.80;;;;;;5027884;28;20657;-81
2023/07/13 10:40:11;;;;;;;8.45;2.05;;;26.80;81.60;;;;;;5013860;28;20022;-81
2023/07/13 10:42:41;;;;;;;4.28;1.75;;;26.80;82.10;;;;;;5034068;28;20029;-81
2023/07/13 10:45:22;;;;;;;8.68;2.25;;;26.90;82.50;;;;;;5027878;28;20013;-81
2023/07/13 10:47:52;;;;;;;11.93;1.92;;;26.90;83.00;;;;;;5028880;28;20034;-81
2023/07/13 10:50:24;;;;;;;6.20;1.95;;;27.00;83.20;;;;;;5022931;28;20025;-81
2023/07/13 10:52:56;;;;;;;4.93;1.50;;;27.20;83.10;;;;;;5024831;28;20049;-81
2023/07/13 10:55:40;;;;;;;3.92;1.33;;;27.30;83.10;;;;;;5022455;28;20028;-80
2023/07/13 10:58:19;;;;;;;4.82;1.48;;;27.40;82.90;;;;;;5025908;28;20026;-80
2023/07/13 11:01:11;;;;;;;4.38;1.38;;;27.70;82.50;;;;;;5033004;28;20481;-82
2023/07/13 11:04:02;;;;;;;3.63;1.60;;;27.90;82.20;;;;;;5004681;28;20037;-82
2023/07/13 11:06:29;;;;;;;4.40;1.10;;;28.20;81.90;;;;;;5030633;28;20021;-82
2023/07/13 11:08:56;;;;;;;2.72;1.20;;;28.50;81.40;;;;;;5032967;28;20409;-81
2023/07/13 11:11:25;;;;;;;7.95;1.55;;;28.70;80.30;;;;;;5032967;28;20165;-81
2023/07/13 11:13:51;;;;;;;5.55;1.70;;;29.00;78.50;;;;;;5033774;28;20163;-81
2023/07/13 11:16:22;;;;;;;4.20;1.70;;;29.20;76.80;;;;;;5026479;28;20104;-81
2023/07/13 11:19:05;;;;;;;3.10;1.98;;;29.40;76.60;;;;;;5033969;28;20021;-81
2023/07/13 11:21:31;;;;;;;3.63;1.40;;;29.60;76.30;;;;;;5031049;28;20056;-81
2023/07/13 11:24:17;;;;;;;3.10;1.45;;;29.90;76.10;;;;;;5021719;28;20069;-81
2023/07/13 11:26:45;;;;;;;4.90;1.55;;;30.10;74.90;;;;;;5026665;28;20030;-81
2023/07/13 11:29:17;;;;;;;2.08;1.20;;;30.30;75.00;;;;;;5032497;28;20033;-81
2023/07/13 11:31:51;;;;;;;4.15;1.27;;;30.70;73.60;;;;;;5016664;28;20057;-81
2023/07/13 11:34:25;;;;;;;3.70;1.30;;;30.90;72.90;;;;;;5017689;28;20041;-81
2023/07/13 11:36:51;;;;;;;6.75;1.38;;;31.10;73.20;;;;;;5022963;28;20029;-82
2023/07/13 11:39:33;;;;;;;6.80;1.40;;;31.40;71.80;;;;;;5024273;28;20026;-83
2023/07/13 11:42:06;;;;;;;5.88;1.10;;;31.70;71.70;;;;;;5023217;28;20087;-83
2023/07/13 11:44:34;;;;;;;3.38;1.27;;;32.10;70.60;;;;;;5031024;28;20048;-83
2023/07/13 11:47:10;;;;;;;4.30;1.30;;;32.40;69.80;;;;;;5026378;28;20025;-83
2023/07/13 11:49:48;;;;;;;3.85;1.63;;;32.80;69.40;;;;;;5022985;28;20037;-83
2023/07/13 11:52:36;;;;;;;4.47;1.30;;;33.20;69.20;;;;;;5027538;28;20033;-83
2023/07/13 11:55:13;;;;;;;3.58;1.20;;;33.80;66.20;;;;;;5029964;28;20030;-82
2023/07/13 11:57:45;;;;;;;5.10;1.83;;;34.10;65.80;;;;;;5020672;28;20025;-83
2023/07/13 12:00:15;;;;;;;3.97;1.58;;;34.20;62.90;;;;;;5030315;28;20029;-83
2023/07/13 12:02:44;;;;;;;3.20;1.55;;;34.20;64.20;;;;;;5028877;28;20029;-80
2023/07/13 12:05:15;;;;;;;4.33;2.07;;;34.20;64.10;;;;;;5027395;28;20120;-81
2023/07/13 12:07:41;;;;;;;2.78;1.40;;;34.50;64.40;;;;;;5026722;28;20029;-81
2023/07/13 12:10:29;;;;;;;4.78;1.90;;;34.90;64.50;;;;;;5033452;28;20025;-81
2023/07/13 12:13:00;;;;;;;4.53;1.88;;;35.20;62.00;;;;;;5015632;28;20082;-81
2023/07/13 12:15:38;;;;;;;5.55;1.98;;;35.40;62.30;;;;;;5031703;28;20022;-81
2023/07/13 12:18:19;;;;;;;7.13;2.15;;;35.50;61.00;;;;;;5032251;28;20432;-81
2023/07/13 12:20:46;;;;;;;3.00;1.67;;;35.50;60.30;;;;;;5022256;28;20519;-81
2023/07/13 12:23:21;;;;;;;3.63;1.33;;;35.40;61.50;;;;;;5032269;28;20029;-81
2023/07/13 12:25:47;;;;;;;5.85;2.38;;;35.60;62.40;;;;;;5032469;28;20037;-81
2023/07/13 12:28:31;;;;;;;4.95;2.22;;;35.80;61.90;;;;;;5028996;28;20064;-81
2023/07/13 12:31:04;;;;;;;4.97;2.58;;;36.20;61.00;;;;;;5027142;28;20033;-81
2023/07/13 12:33:32;;;;;;;5.97;1.85;;;36.30;59.70;;;;;;5032697;28;20022;-81
2023/07/13 12:36:02;;;;;;;3.65;2.00;;;36.30;60.60;;;;;;5033036;28;20113;-81
2023/07/13 12:38:28;;;;;;;7.75;2.58;;;36.50;60.00;;;;;;5032921;28;20512;-81
2023/07/13 12:40:54;;;;;;;5.70;2.13;;;36.50;58.40;;;;;;5032546;28;20033;-81
2023/07/13 12:43:22;;;;;;;9.38;2.67;;;36.60;59.80;;;;;;5032618;28;20096;-81
2023/07/13 12:46:20;;;;;;;6.05;2.42;;;36.70;59.90;;;;;;5032709;28;20022;-81
2023/07/13 12:48:50;;;;;;;6.50;2.60;;;37.00;60.40;;;;;;5025792;28;20108;-81
2023/07/13 12:51:16;;;;;;;6.72;2.13;;;37.20;59.80;;;;;;5029108;28;20482;-81
2023/07/13 12:53:54;;;;;;;6.25;2.38;;;37.50;58.80;;;;;;5030607;28;20036;-81
2023/07/13 12:56:23;;;;;;;8.25;2.50;;;37.60;58.40;;;;;;5032299;28;20079;-81
2023/07/13 12:58:54;;;;;;;;;;;37.60;57.60;;;;;;5032888;28;20028;-81
2023/07/13 13:01:22;;;;;;;4.75;2.45;;;37.60;56.60;;;;;;5030376;28;19959;-82
2023/07/13 13:03:51;;;;;;;6.82;2.30;;;37.70;56.80;;;;;;5023804;28;20032;-81
2023/07/13 13:06:18;;;;;;;8.40;2.58;;;37.80;57.10;;;;;;5031654;28;20033;-81
2023/07/13 13:08:53;;;;;;;4.45;2.10;;;37.80;56.60;;;;;;5035901;28;20022;-81
2023/07/13 13:11:20;;;;;;;5.10;2.30;;;37.70;56.10;;;;;;5029175;28;20030;-82
2023/07/13 13:13:47;;;;;;;4.55;2.15;;;37.50;56.10;;;;;;5025835;28;20033;-81
2023/07/13 13:16:20;;;;;;;7.60;2.97;;;37.60;56.60;;;;;;5033608;28;20044;-82
2023/07/13 13:18:47;;;;;;;6.53;2.70;;;37.70;56.40;;;;;;5036371;28;20030;-82
2023/07/13 13:21:12;;;;;;;5.95;2.33;;;37.70;56.40;;;;;;5035823;28;20086;-82
2023/07/13 13:23:38;;;;;;;5.88;2.25;;;37.80;56.00;;;;;;5033905;28;20463;-82
2023/07/13 13:26:12;;;;;;;4.90;2.40;;;37.90;56.10;;;;;;5036198;28;20028;-82
2023/07/13 13:28:38;;;;;;;13.02;3.17;;;38.00;55.50;;;;;;5035964;28;20059;-82
2023/07/13 13:31:04;;;;;;;4.97;2.20;;;38.00;56.10;;;;;;5035675;28;20100;-81
2023/07/13 13:33:30;;;;;;;7.75;2.72;;;38.00;55.40;;;;;;5035041;28;20037;-81
2023/07/13 13:35:56;;;;;;;5.97;2.65;;;38.00;55.40;;;;;;5035579;28;20307;-81
2023/07/13 13:38:26;;;;;;;10.98;3.17;;;38.00;55.60;;;;;;5036051;28;20018;-82
2023/07/13 13:40:52;;;;;;;5.93;3.00;;;38.00;55.30;;;;;;5035732;28;20025;-82
2023/07/13 13:43:25;;;;;;;8.63;3.00;;;38.00;55.40;;;;;;5035526;28;20108;-82
2023/07/13 13:45:53;;;;;;;6.47;3.53;;;38.00;56.00;;;;;;5035771;28;20064;-82
2023/07/13 13:48:30;;;;;;;6.70;3.50;;;38.00;56.10;;;;;;5035976;28;20095;-81
2023/07/13 13:50:56;;;;;;;7.20;3.38;;;38.00;56.40;;;;;;5031098;28;20486;-81
2023/07/13 13:53:23;;;;;;;9.25;3.83;;;37.90;56.20;;;;;;5033004;28;20053;-81
2023/07/13 13:55:50;;;;;;;7.55;3.20;;;37.90;56.10;;;;;;5035782;28;20105;-81
2023/07/13 13:58:15;;;;;;;8.10;2.83;;;37.80;55.50;;;;;;5030777;28;20080;-81
2023/07/13 14:00:45;;;;;;;7.15;2.72;;;37.70;55.60;;;;;;5035769;28;20030;-81
2023/07/13 14:03:18;;;;;;;;;;;37.60;55.20;;;;;;5031408;28;20108;-81
2023/07/13 14:05:46;;;;;;;5.70;2.50;;;37.50;55.20;;;;;;5015799;28;20365;-81
2023/07/13 14:08:16;;;;;;;4.40;2.30;;;37.30;55.10;;;;;;5015676;28;20375;-81
2023/07/13 14:10:46;;;;;;;6.70;2.35;;;37.20;55.80;;;;;;5015931;28;20370;-81
2023/07/13 14:13:39;;;;;;;6.45;2.40;;;37.10;56.60;;;;;;5034713;28;20065;-82
2023/07/13 14:16:18;;;;;;;9.68;2.85;;;37.00;55.80;;;;;;5036130;28;20470;-82
2023/07/13 14:18:45;;;;;;;10.68;2.80;;;36.90;56.10;;;;;;5035188;28;20064;-81
2023/07/13 14:21:18;;;;;;;6.60;2.20;;;36.70;55.80;;;;;;5035141;28;20029;-81
2023/07/13 14:23:45;;;;;;;5.60;2.05;;;36.40;56.70;;;;;;5027395;28;20072;-81
2023/07/13 14:26:17;;;;;;;6.82;2.22;;;36.10;57.20;;;;;;5034680;28;20066;-81
2023/07/13 14:28:45;;;;;;;6.20;2.22;;;35.80;57.50;;;;;;5034919;28;20108;-81
2023/07/13 14:31:13;;;;;;;6.37;2.10;;;35.60;58.00;;;;;;5025618;28;20037;-81
2023/07/13 14:33:39;;;;;;;9.07;2.78;;;35.40;58.90;;;;;;5022364;28;20063;-81
2023/07/13 14:36:44;;;;;;;9.45;2.95;;;35.10;58.80;;;;;;5033785;28;20014;-81
2023/07/13 14:39:16;;;;;;;11.30;3.13;;;34.90;59.30;;;;;;5034566;28;20021;-81
2023/07/13 14:41:42;;;;;;;12.13;2.97;;;34.70;59.60;;;;;;5034322;28;20022;-81
2023/07/13 14:44:17;;;;;;;3.88;1.92;;;34.50;59.70;;;;;;5034176;28;20041;-81
2023/07/13 14:46:45;;;;;;;6.22;1.90;;;34.30;60.30;;;;;;5034829;28;20080;-81
2023/07/13 14:49:17;;;;;;;7.85;2.35;;;34.20;61.00;;;;;;5034589;28;20092;-82
2023/07/13 14:51:43;;;;;;;10.35;3.40;;;34.10;61.70;;;;;;5016151;28;20033;-82
2023/07/13 14:54:10;;;;;;;42.70;8.27;;;34.00;61.40;;;;;;5025773;28;20090;-81
2023/07/13 14:56:35;;;;;;;12.02;3.85;;;33.90;61.20;;;;;;5034793;28;20021;-81